createdAt,value
2019-05-22T00:04:46.102Z,99.81
2019-05-22T00:10:12.198Z,99.81
2019-05-22T00:15:38.647Z,100.00
2019-05-22T00:21:04.494Z,100.00
2019-05-22T00:26:29.181Z,99.09
2019-05-22T00:31:53.019Z,98.67
2019-05-22T00:37:17.684Z,97.22
2019-05-22T00:42:45.764Z,96.22
2019-05-22T00:48:11.457Z,96.44
2019-05-22T00:53:55.618Z,97.06
2019-05-22T00:59:29.286Z,96.33
2019-05-22T01:04:54.877Z,96.10
2019-05-22T01:10:18.912Z,95.94
2019-05-22T01:15:43.430Z,96.34
2019-05-22T01:21:09.937Z,97.11
2019-05-22T01:26:35.691Z,97.21
2019-05-22T01:32:08.454Z,97.56
2019-05-22T01:37:34.636Z,97.59
2019-05-22T01:43:00.674Z,97.62
2019-05-22T01:48:31.526Z,97.50
2019-05-22T01:53:56.071Z,97.21
2019-05-22T01:59:20.100Z,96.58
2019-05-22T02:04:47.508Z,96.49
2019-05-22T02:10:17.516Z,96.40
2019-05-22T02:15:41.494Z,96.42
2019-05-22T02:21:06.874Z,96.09
2019-05-22T02:26:32.130Z,96.63
2019-05-22T02:31:58.538Z,96.75
2019-05-22T02:37:24.556Z,96.28
2019-05-22T02:42:50.592Z,95.99
2019-05-22T02:48:15.469Z,95.94
2019-05-22T02:53:40.974Z,95.55
2019-05-22T02:59:07.597Z,95.23
2019-05-22T03:05:03.749Z,95.14
2019-05-22T03:10:29.643Z,94.75
2019-05-22T03:15:54.959Z,95.33
2019-05-22T03:21:20.054Z,96.68
2019-05-22T03:26:48.725Z,97.18
2019-05-22T03:32:13.396Z,97.86
2019-05-22T03:37:39.605Z,98.90
2019-05-22T03:43:15.888Z,99.89
2019-05-22T03:48:40.597Z,99.93
2019-05-22T03:54:06.532Z,99.98
2019-05-22T03:59:31.206Z,99.92
2019-05-22T04:04:55.120Z,99.62
2019-05-22T04:10:21.522Z,99.20
2019-05-22T04:15:46.015Z,100.00
2019-05-22T04:21:10.180Z,100.00
2019-05-22T04:26:34.260Z,100.00
2019-05-22T04:32:15.623Z,100.00
2019-05-22T04:37:43.094Z,100.00
2019-05-22T04:43:08.420Z,100.00
2019-05-22T04:48:35.012Z,100.00
2019-05-22T04:53:59.339Z,100.00
2019-05-22T04:59:24.245Z,100.00
2019-05-22T05:04:48.237Z,100.00
2019-05-22T05:10:13.026Z,100.00
2019-05-22T05:15:37.369Z,100.00
2019-05-22T05:21:01.827Z,100.00
2019-05-22T05:26:26.812Z,100.00
2019-05-22T05:31:52.141Z,100.00
2019-05-22T05:37:20.632Z,100.00
2019-05-22T05:42:45.676Z,100.00
2019-05-22T05:48:11.993Z,100.00
2019-05-22T05:53:44.315Z,100.00
2019-05-22T05:59:09.209Z,100.00
2019-05-22T06:04:39.394Z,100.00
2019-05-22T06:10:31.442Z,100.00
2019-05-22T06:17:00.887Z,100.00
2019-05-22T06:22:25.358Z,100.00
2019-05-22T06:27:55.282Z,100.00
2019-05-22T06:33:30.493Z,100.00
2019-05-22T06:39:03.040Z,100.00
2019-05-22T06:44:32.714Z,100.00
2019-05-22T06:49:57.801Z,100.00
2019-05-22T06:55:22.648Z,100.00
2019-05-22T07:00:49.491Z,100.00
2019-05-22T07:06:14.347Z,100.00
2019-05-22T07:11:38.703Z,100.00
2019-05-22T07:17:03.110Z,99.73
2019-05-22T07:22:28.382Z,98.93
2019-05-22T07:27:52.574Z,99.25
2019-05-22T07:33:18.629Z,100.00
2019-05-22T07:38:43.269Z,100.00
2019-05-22T07:44:07.970Z,98.91
2019-05-22T07:49:32.657Z,100.00
2019-05-22T07:54:56.809Z,100.00
2019-05-22T08:00:21.482Z,100.00
2019-05-22T08:05:51.611Z,100.00
2019-05-22T08:11:15.991Z,97.85
2019-05-22T08:16:40.774Z,98.49
2019-05-22T08:22:07.667Z,98.13
2019-05-22T08:27:32.104Z,97.36
2019-05-22T08:32:58.410Z,96.98
2019-05-22T08:38:29.976Z,98.13
2019-05-22T08:44:14.336Z,97.11
2019-05-22T08:49:20.230Z,96.96
2019-05-22T08:54:47.419Z,96.88
2019-05-22T09:00:14.321Z,95.45
2019-05-22T09:05:38.161Z,94.42
2019-05-22T09:11:03.780Z,95.40
2019-05-22T09:16:27.837Z,96.39
2019-05-22T09:21:51.573Z,95.89
2019-05-22T09:27:16.692Z,94.75
2019-05-22T09:32:40.815Z,94.20
2019-05-22T09:38:04.867Z,93.66
2019-05-22T09:43:29.843Z,93.22
2019-05-22T09:48:54.799Z,92.49
2019-05-22T09:54:19.673Z,92.46
2019-05-22T09:59:44.089Z,90.45
2019-05-22T10:05:11.000Z,90.63
2019-05-22T10:10:36.314Z,90.67
2019-05-22T10:15:59.815Z,90.65
2019-05-22T10:21:26.083Z,89.58
2019-05-22T10:26:50.149Z,89.67
2019-05-22T10:32:14.323Z,89.84
2019-05-22T10:37:38.230Z,89.52
2019-05-22T10:43:03.354Z,89.23
2019-05-22T10:48:28.418Z,90.69
2019-05-22T10:53:53.066Z,90.07
2019-05-22T10:59:17.476Z,91.39
2019-05-22T11:04:42.185Z,89.55
2019-05-22T11:10:06.647Z,90.50
2019-05-22T11:15:31.921Z,89.37
2019-05-22T11:20:56.173Z,88.98
2019-05-22T11:26:20.279Z,90.49
2019-05-22T11:31:44.996Z,91.71
2019-05-22T11:37:10.151Z,92.18
2019-05-22T11:42:34.860Z,91.93
2019-05-22T11:47:59.241Z,91.58
2019-05-22T11:53:22.646Z,89.70
2019-05-22T11:58:46.518Z,91.40
2019-05-22T12:04:12.011Z,92.85
2019-05-22T12:09:35.857Z,93.21
2019-05-22T12:15:00.625Z,93.31
2019-05-22T12:20:26.001Z,93.47
2019-05-22T12:25:49.605Z,93.47
2019-05-22T12:31:14.834Z,92.54
2019-05-22T12:36:38.604Z,92.05
2019-05-22T12:42:03.179Z,92.23
2019-05-22T12:47:27.810Z,91.09
2019-05-22T12:52:52.954Z,90.13
2019-05-22T12:58:18.204Z,89.54
2019-05-22T13:03:42.494Z,88.63
2019-05-22T13:09:10.676Z,87.98
2019-05-22T13:14:36.313Z,89.17
2019-05-22T13:20:01.208Z,90.15
2019-05-22T13:25:32.704Z,90.22
2019-05-22T13:30:58.230Z,89.56
2019-05-22T13:36:22.451Z,89.50
2019-05-22T13:41:46.905Z,89.41
2019-05-22T13:47:12.375Z,88.89
2019-05-22T13:52:37.970Z,89.26
2019-05-22T13:58:03.849Z,89.89
2019-05-22T14:03:28.495Z,90.50
2019-05-22T14:08:53.651Z,91.38
2019-05-22T14:14:17.952Z,91.58
2019-05-22T14:19:42.783Z,91.45
2019-05-22T14:25:07.824Z,91.13
2019-05-22T14:30:32.721Z,91.59
2019-05-22T14:35:57.199Z,91.15
2019-05-22T14:41:21.942Z,91.46
2019-05-22T14:46:46.303Z,91.09
2019-05-22T14:52:11.303Z,90.64
2019-05-22T14:57:35.965Z,90.82
2019-05-22T15:03:00.010Z,90.60
2019-05-22T15:08:24.798Z,89.77
2019-05-22T15:13:49.773Z,88.52
2019-05-22T15:19:14.651Z,88.19
2019-05-22T15:24:38.469Z,87.06
2019-05-22T15:30:03.552Z,86.93
2019-05-22T15:35:27.507Z,87.23
2019-05-22T15:40:53.089Z,87.21
2019-05-22T15:46:18.154Z,86.56
2019-05-22T15:51:44.239Z,87.08
2019-05-22T15:57:10.559Z,87.53
2019-05-22T16:02:35.276Z,87.16
2019-05-22T16:08:00.427Z,86.78
2019-05-22T16:13:26.686Z,86.51
2019-05-22T16:18:52.388Z,85.86
2019-05-22T16:24:17.507Z,86.05
2019-05-22T16:29:43.614Z,85.64
2019-05-22T16:35:08.549Z,85.26
2019-05-22T16:40:32.881Z,85.04
2019-05-22T16:45:57.649Z,84.42
2019-05-22T16:51:23.319Z,84.10
2019-05-22T16:56:47.494Z,83.23
2019-05-22T17:02:15.957Z,83.57
2019-05-22T17:07:41.854Z,84.95
2019-05-22T17:13:05.952Z,83.89
2019-05-22T17:18:45.910Z,82.93
2019-05-22T17:23:58.667Z,82.66
2019-05-22T17:29:23.387Z,82.38
2019-05-22T17:34:47.981Z,83.17
2019-05-22T17:40:15.236Z,83.51
2019-05-22T17:45:41.732Z,83.72
2019-05-22T17:51:06.966Z,83.78
2019-05-22T17:56:31.453Z,83.89
2019-05-22T18:01:57.313Z,83.71
2019-05-22T18:07:21.869Z,82.88
2019-05-22T18:12:46.133Z,82.96
2019-05-22T18:18:11.156Z,82.04
2019-05-22T18:23:35.143Z,81.32
2019-05-22T18:28:59.782Z,81.19
2019-05-22T18:34:24.690Z,80.97
2019-05-22T18:39:48.546Z,80.56
2019-05-22T18:45:14.189Z,79.75
2019-05-22T18:50:38.701Z,79.32
2019-05-22T18:56:03.748Z,78.42
2019-05-22T19:01:27.663Z,78.71
2019-05-22T19:06:55.653Z,78.48
2019-05-22T19:12:17.577Z,78.52
2019-05-22T19:17:41.735Z,77.83
2019-05-22T19:23:06.427Z,78.50
2019-05-22T19:28:42.790Z,77.36
2019-05-22T19:33:57.911Z,77.27
2019-05-22T19:39:22.198Z,76.45
2019-05-22T19:44:47.393Z,76.48
2019-05-22T19:50:22.665Z,76.15
2019-05-22T19:55:39.805Z,76.08
2019-05-22T20:01:06.258Z,76.13
2019-05-22T20:06:30.993Z,75.90
2019-05-22T20:11:55.423Z,75.88
2019-05-22T20:17:20.469Z,75.88
2019-05-22T20:22:45.733Z,75.64
2019-05-22T20:28:10.104Z,75.32
2019-05-22T20:33:33.959Z,75.79
2019-05-22T20:38:58.487Z,74.91
2019-05-22T20:44:22.794Z,75.18
2019-05-22T20:49:47.997Z,75.26
2019-05-22T20:55:14.620Z,75.17
2019-05-22T21:00:40.685Z,75.41
2019-05-22T21:06:08.385Z,75.29
2019-05-22T21:11:34.103Z,75.12
2019-05-22T21:17:00.993Z,75.90
2019-05-22T21:22:27.555Z,75.98
2019-05-22T21:27:52.664Z,75.41
2019-05-22T21:33:17.964Z,75.36
2019-05-22T21:38:42.682Z,75.55
2019-05-22T21:44:06.771Z,75.68
2019-05-22T21:49:32.173Z,75.80
2019-05-22T21:54:56.891Z,75.65
2019-05-22T22:00:41.720Z,76.41
2019-05-22T22:06:06.406Z,75.97
2019-05-22T22:11:31.616Z,76.15
2019-05-22T22:16:56.369Z,75.58
2019-05-22T22:22:28.200Z,75.97
2019-05-22T22:27:52.517Z,75.89
2019-05-22T22:33:23.457Z,76.57
2019-05-22T22:38:48.191Z,77.27
2019-05-22T22:44:12.410Z,77.81
2019-05-22T22:49:37.883Z,77.99
2019-05-22T22:55:04.020Z,77.89
2019-05-22T23:00:37.718Z,78.27
2019-05-22T23:06:02.288Z,78.39
2019-05-22T23:11:27.439Z,78.51
2019-05-22T23:16:53.076Z,78.44
2019-05-22T23:22:32.049Z,78.47
2019-05-22T23:27:56.964Z,78.19
2019-05-22T23:33:20.692Z,78.29
2019-05-22T23:38:46.488Z,78.38
2019-05-22T23:44:14.510Z,78.23
2019-05-22T23:49:42.692Z,78.71
2019-05-22T23:55:06.777Z,78.45
